createdAt,value
2022-11-12T00:00:48.204Z,14.0
2022-11-12T00:05:54.441Z,13.0
2022-11-12T00:11:00.612Z,11.0
2022-11-12T00:16:06.817Z,11.0
2022-11-12T00:21:13.027Z,10.5
2022-11-12T00:26:19.232Z,12.0
2022-11-12T00:31:25.446Z,13.0
2022-11-12T00:36:31.657Z,12.0
2022-11-12T00:41:37.858Z,13.0
2022-11-12T00:46:44.064Z,12.0
2022-11-12T00:51:50.276Z,12.0
2022-11-12T00:56:56.486Z,12.0
2022-11-12T01:02:02.693Z,12.0
2022-11-12T01:07:08.929Z,12.0
2022-11-12T01:12:15.101Z,13.0
2022-11-12T01:17:21.305Z,11.0
2022-11-12T01:22:26.548Z,11.0
2022-11-12T01:27:32.751Z,10.0
2022-11-12T01:32:37.991Z,10.0
2022-11-12T01:37:44.195Z,10.0
2022-11-12T01:42:50.401Z,10.0
2022-11-12T01:47:56.613Z,10.0
2022-11-12T01:53:02.815Z,10.0
2022-11-12T01:58:09.024Z,10.0
2022-11-12T02:03:15.229Z,10.0
2022-11-12T02:08:21.441Z,10.0
2022-11-12T02:13:27.646Z,10.0
2022-11-12T02:18:33.854Z,9.0
2022-11-12T02:23:40.074Z,9.0
2022-11-12T02:28:46.279Z,9.0
2022-11-12T02:33:52.469Z,10.0
2022-11-12T02:38:58.681Z,11.0
2022-11-12T02:44:04.889Z,10.0
2022-11-12T02:49:11.092Z,9.0
2022-11-12T02:54:17.308Z,8.0
2022-11-12T02:59:23.516Z,9.0
2022-11-12T03:04:29.718Z,8.0
2022-11-12T03:09:35.921Z,9.0
2022-11-12T03:14:42.135Z,8.5
2022-11-12T03:19:47.366Z,8.0
2022-11-12T03:24:53.575Z,8.0
2022-11-12T03:29:58.812Z,8.0
2022-11-12T03:35:05.049Z,8.0
2022-11-12T03:40:11.241Z,8.0
2022-11-12T03:45:17.445Z,8.0
2022-11-12T03:50:23.644Z,7.0
2022-11-12T03:55:29.848Z,7.0
2022-11-12T04:00:36.055Z,9.0
2022-11-12T04:05:42.271Z,9.0
2022-11-12T04:10:48.471Z,9.0
2022-11-12T04:15:54.673Z,9.0
2022-11-12T04:21:00.883Z,9.0
2022-11-12T04:26:07.094Z,9.0
2022-11-12T04:31:13.296Z,9.0
2022-11-12T04:36:19.509Z,9.0
2022-11-12T04:41:25.718Z,9.0
2022-11-12T04:46:31.923Z,9.0
2022-11-12T04:51:38.128Z,8.0
2022-11-12T04:56:44.336Z,7.0
2022-11-12T05:01:50.540Z,6.0
2022-11-12T05:06:56.832Z,6.0
2022-11-12T05:12:02.955Z,7.0
2022-11-12T05:17:08.190Z,7.0
2022-11-12T05:22:40.411Z,7.0
2022-11-12T05:27:20.602Z,7.5
2022-11-12T05:32:26.813Z,8.0
2022-11-12T05:37:33.029Z,8.0
2022-11-12T05:42:39.234Z,8.0
2022-11-12T05:47:45.438Z,9.0
2022-11-12T05:52:51.659Z,9.0
2022-11-12T05:57:57.852Z,8.0
2022-11-12T06:03:04.065Z,8.0
2022-11-12T06:08:10.426Z,8.0
2022-11-12T06:13:16.473Z,7.0
2022-11-12T06:18:22.813Z,7.0
2022-11-12T06:23:28.890Z,7.0
2022-11-12T06:28:35.150Z,8.0
2022-11-12T06:33:41.303Z,7.0
2022-11-12T06:38:47.509Z,8.0
2022-11-12T06:43:53.734Z,8.0
2022-11-12T06:48:59.928Z,7.0
2022-11-12T06:54:06.155Z,8.0
2022-11-12T06:59:12.343Z,7.0
2022-11-12T07:04:17.624Z,7.0
2022-11-12T07:09:23.786Z,7.0
2022-11-12T07:14:29.024Z,7.0
2022-11-12T07:19:35.231Z,7.0
2022-11-12T07:24:41.435Z,8.0
2022-11-12T07:29:48.683Z,9.0
2022-11-12T07:34:52.875Z,10.0
2022-11-12T07:39:59.083Z,10.0
2022-11-12T07:45:05.290Z,10.0
2022-11-12T07:50:11.499Z,10.5
2022-11-12T07:55:17.708Z,11.0
2022-11-12T08:00:23.917Z,11.5
2022-11-12T08:05:30.117Z,12.0
2022-11-12T08:10:36.326Z,12.0
2022-11-12T08:20:48.799Z,12.0
2022-11-12T08:25:54.946Z,13.0
2022-11-12T08:31:01.177Z,14.0
2022-11-12T08:36:07.368Z,15.0
2022-11-12T08:41:13.580Z,16.0
2022-11-12T08:46:19.773Z,16.0
2022-11-12T08:51:25.985Z,16.0
2022-11-12T08:56:32.191Z,17.0
2022-11-12T09:01:38.407Z,18.0
2022-11-12T09:06:45.429Z,17.0
2022-11-12T09:11:50.814Z,18.0
2022-11-12T09:16:57.025Z,18.0
2022-11-12T09:22:03.227Z,19.0
2022-11-12T09:27:08.462Z,19.0
2022-11-12T09:32:14.671Z,20.0
2022-11-12T09:37:19.909Z,19.0
2022-11-12T09:42:26.115Z,18.0
2022-11-12T09:47:32.320Z,18.0
2022-11-12T09:52:38.538Z,17.0
2022-11-12T09:57:44.739Z,16.0
2022-11-12T10:02:50.945Z,16.0
2022-11-12T10:07:57.156Z,16.0
2022-11-12T10:13:03.364Z,17.0
2022-11-12T10:18:09.572Z,16.0
2022-11-12T10:23:15.775Z,14.0
2022-11-12T10:28:21.981Z,13.0
2022-11-12T10:33:27.207Z,12.0
2022-11-12T10:38:33.428Z,12.0
2022-11-12T10:43:39.625Z,13.0
2022-11-12T10:48:45.836Z,13.0
2022-11-12T10:53:52.051Z,12.0
2022-11-12T10:58:58.260Z,12.0
2022-11-12T11:04:04.475Z,12.0
2022-11-12T11:09:10.667Z,12.0
2022-11-12T11:14:16.874Z,12.0
2022-11-12T11:19:23.083Z,11.0
2022-11-12T11:24:28.318Z,12.0
2022-11-12T11:29:34.524Z,11.0
2022-11-12T11:34:40.734Z,10.0
2022-11-12T11:39:46.941Z,11.0
2022-11-12T11:44:53.155Z,10.0
2022-11-12T11:49:59.367Z,9.0
2022-11-12T11:55:05.577Z,10.0
2022-11-12T12:00:11.790Z,10.0
2022-11-12T12:05:18.000Z,10.0
2022-11-12T12:10:30.350Z,10.0
2022-11-12T12:15:30.437Z,10.0
2022-11-12T12:20:36.656Z,10.0
2022-11-12T12:25:42.859Z,10.0
2022-11-12T12:30:49.072Z,10.0
2022-11-12T12:35:55.273Z,10.0
2022-11-12T12:41:01.482Z,10.0
2022-11-12T12:46:07.690Z,10.0
2022-11-12T12:51:13.903Z,9.0
2022-11-12T12:56:20.117Z,11.0
2022-11-12T13:01:26.334Z,10.5
2022-11-12T13:06:32.531Z,10.0
2022-11-12T13:11:37.761Z,10.0
2022-11-12T13:16:43.967Z,10.0
2022-11-12T13:21:49.203Z,10.0
2022-11-12T13:26:55.414Z,9.0
2022-11-12T13:32:01.642Z,9.0
2022-11-12T13:37:07.829Z,9.0
2022-11-12T13:42:14.050Z,8.0
2022-11-12T13:47:20.242Z,8.0
2022-11-12T13:52:26.454Z,8.0
2022-11-12T13:57:32.667Z,8.0
2022-11-12T14:02:41.471Z,7.0
2022-11-12T14:07:45.085Z,7.0
2022-11-12T14:12:51.287Z,8.0
2022-11-12T14:17:57.497Z,7.0
2022-11-12T14:23:03.705Z,7.0
2022-11-12T14:28:09.910Z,7.0
2022-11-12T14:33:16.123Z,7.0
2022-11-12T14:38:22.325Z,7.0
2022-11-12T14:43:28.610Z,7.0
2022-11-12T14:48:34.742Z,7.0
2022-11-12T14:53:40.949Z,7.0
2022-11-12T14:58:47.158Z,6.0
2022-11-12T15:03:53.372Z,6.0
2022-11-12T15:08:58.600Z,7.0
2022-11-12T15:14:04.817Z,7.0
2022-11-12T15:19:10.055Z,7.0
2022-11-12T15:24:16.299Z,7.0
2022-11-12T15:29:22.473Z,7.0
2022-11-12T15:34:28.680Z,6.0
2022-11-12T15:39:34.893Z,6.0
2022-11-12T15:44:41.095Z,6.0
2022-11-12T15:49:47.324Z,6.0
2022-11-12T15:54:53.537Z,6.0
2022-11-12T16:00:03.062Z,6.0
2022-11-12T16:05:05.962Z,6.0
2022-11-12T16:10:12.172Z,6.5
2022-11-12T16:15:18.395Z,6.0
2022-11-12T16:20:24.606Z,7.0
2022-11-12T16:25:30.822Z,6.0
2022-11-12T16:30:37.021Z,6.0
2022-11-12T16:35:43.238Z,8.0
2022-11-12T16:40:49.434Z,7.0
2022-11-12T16:45:55.643Z,7.0
2022-11-12T16:51:01.865Z,7.0
2022-11-12T16:56:08.061Z,7.0
2022-11-12T17:01:14.297Z,7.0
2022-11-12T17:06:19.504Z,8.0
2022-11-12T17:11:25.716Z,8.0
2022-11-12T17:16:30.954Z,7.0
2022-11-12T17:21:37.158Z,8.0
2022-11-12T17:26:43.367Z,8.0
2022-11-12T17:31:49.588Z,9.0
2022-11-12T17:36:55.782Z,8.0
2022-11-12T17:42:01.997Z,8.0
2022-11-12T17:47:08.201Z,8.0
2022-11-12T17:52:14.406Z,9.0
2022-11-12T17:57:20.616Z,9.0
2022-11-12T18:02:26.833Z,9.0
2022-11-12T18:07:33.029Z,10.0
2022-11-12T18:12:39.234Z,10.0
2022-11-12T18:17:45.442Z,10.0
2022-11-12T18:22:51.652Z,10.0
2022-11-12T18:27:57.859Z,11.0
2022-11-12T18:33:04.064Z,11.0
2022-11-12T18:38:10.271Z,11.0
2022-11-12T18:43:16.481Z,10.0
2022-11-12T18:48:22.688Z,10.0
2022-11-12T18:53:29.331Z,9.0
2022-11-12T18:58:35.635Z,10.0
2022-11-12T19:03:40.344Z,23.0
2022-11-12T19:08:46.549Z,11.0
2022-11-12T19:13:51.786Z,9.0
2022-11-12T19:18:58.000Z,9.0
2022-11-12T19:24:04.203Z,9.0
2022-11-12T19:29:10.407Z,8.0
2022-11-12T19:34:16.614Z,7.0
2022-11-12T19:39:22.835Z,6.0
2022-11-12T19:44:29.041Z,6.0
2022-11-12T19:49:35.244Z,5.0
2022-11-12T19:54:41.443Z,7.0
2022-11-12T19:59:47.659Z,7.0
2022-11-12T20:04:53.857Z,6.0
2022-11-12T20:10:01.244Z,7.0
2022-11-12T20:15:06.286Z,6.0
2022-11-12T20:20:12.487Z,6.0
2022-11-12T20:25:18.694Z,5.0
2022-11-12T20:30:24.898Z,6.0
2022-11-12T20:35:31.103Z,7.0
2022-11-12T20:40:37.325Z,7.0
2022-11-12T20:45:43.529Z,9.0
2022-11-12T20:51:09.596Z,8.0
2022-11-12T20:55:55.930Z,9.0
2022-11-12T21:01:01.282Z,10.0
2022-11-12T21:06:07.380Z,10.0
2022-11-12T21:11:12.624Z,13.0
2022-11-12T21:16:18.818Z,13.0
2022-11-12T21:21:25.025Z,14.0
2022-11-12T21:26:31.285Z,15.0
2022-11-12T21:31:37.444Z,13.0
2022-11-12T21:36:43.660Z,15.0
2022-11-12T21:41:49.861Z,15.0
2022-11-12T21:46:56.064Z,15.0
2022-11-12T21:52:02.271Z,15.0
2022-11-12T21:57:08.477Z,13.0
2022-11-12T22:02:14.716Z,14.0
2022-11-12T22:07:20.923Z,14.0
2022-11-12T22:12:27.102Z,16.0
2022-11-12T22:17:33.313Z,16.0
2022-11-12T22:22:39.518Z,16.0
2022-11-12T22:27:45.723Z,15.0
2022-11-12T22:37:58.135Z,15.0
2022-11-12T22:43:04.347Z,14.0
2022-11-12T22:48:10.555Z,14.0
2022-11-12T22:53:16.760Z,14.0
2022-11-12T22:58:22.969Z,13.0
2022-11-12T23:03:28.210Z,14.5
2022-11-12T23:08:34.410Z,15.0
2022-11-12T23:13:40.626Z,14.0
2022-11-12T23:18:45.861Z,14.0
2022-11-12T23:23:52.062Z,13.0
2022-11-12T23:28:58.271Z,13.0
2022-11-12T23:34:04.475Z,13.0
2022-11-12T23:39:10.683Z,13.0
2022-11-12T23:44:16.892Z,13.0
2022-11-12T23:49:23.095Z,12.0
2022-11-12T23:54:29.306Z,13.0
2022-11-12T23:59:35.516Z,12.0
